Terminal Aerodrome Forecast
Issued by NWS Sterling, VA

Home | Current Version | Previous Version | Text Only | Print | Product List | Glossary On
Versions: 1 2 3 4 5 6 7 8 9 10 11 12 13 14 15 16 17 18 19 20 21 22 23
929
FTUS41 KLWX 181458 AAA
TAFBWI
TAF AMD
KBWI 181458Z 1815/1918 19009KT P6SM SCT130 OVC250
     FM190000 19013G23KT P6SM SCT040 OVC200
     FM190300 20015G28KT P6SM -SHRA SCT035 OVC100
     FM191000 24016G29KT 6SM -SHRA SCT025 OVC050
     FM191200 28020G36KT P6SM SCT040 BKN100
     FM191300 29022G39KT P6SM FEW040 SCT100=

USA.gov is the U.S. government's official web portal to all federal, state and local government web resources and services.